Time;durP1;ratioP1;P1;durP2;ratioP2;P2;SDS_P1;SDS_P2;PMS_P1;PMS_P2;Temp;Humidity;BMP_temperature;BMP_pressure;BME280_temperature;BME280_humidity;BME280_pressure;Samples;Min_cycle;Max_cycle;Signal;HPM_P1;HPM_P2
2021/12/09 00:01:33;;;;;;;;;2.75;1.00;;;;;4.03;100.00;100170.19;4887633;29;44847;-85
2021/12/09 00:04:02;;;;;;;;;3.00;1.75;;;;;4.06;100.00;100161.28;4887430;29;44837;-85
2021/12/09 00:06:30;;;;;;;;;1.00;1.00;;;;;4.05;100.00;100163.06;4892316;29;44857;-84
2021/12/09 00:09:00;;;;;;;;;0.50;0.50;;;;;4.09;100.00;100158.50;4895435;29;45433;-85
2021/12/09 00:11:28;;;;;;;;;1.00;1.00;;;;;4.11;100.00;100152.25;4894325;29;44685;-85
2021/12/09 00:13:54;;;;;;;;;0.25;0.25;;;;;4.13;100.00;100166.16;4892684;29;44689;-85
2021/12/09 00:16:19;;;;;;;;;1.00;1.00;;;;;4.11;100.00;100160.16;4886171;29;45501;-84
2021/12/09 00:18:45;;;;;;;;;1.25;1.25;;;;;4.09;100.00;100151.47;4883081;29;45971;-85
2021/12/09 00:21:11;;;;;;;;;3.25;1.50;;;;;4.11;100.00;100168.03;4883636;29;45167;-85
2021/12/09 00:23:36;;;;;;;;;1.00;1.00;;;;;4.12;100.00;100163.63;4884336;29;45252;-84
2021/12/09 00:26:02;;;;;;;;;1.50;1.00;;;;;4.10;100.00;100174.19;4884228;29;44797;-85
2021/12/09 00:28:28;;;;;;;;;3.75;1.00;;;;;4.01;100.00;100168.53;4884855;29;45474;-85
2021/12/09 00:30:53;;;;;;;;;1.00;1.00;;;;;4.05;100.00;100177.97;4887290;29;44801;-85
2021/12/09 00:33:19;;;;;;;;;0.00;0.00;;;;;4.03;100.00;100166.72;4885101;29;44795;-84
2021/12/09 00:35:49;;;;;;;;;1.00;1.00;;;;;4.05;100.00;100181.47;4882807;29;45466;-85
2021/12/09 00:38:32;;;;;;;;;0.75;0.75;;;;;4.02;100.00;100165.00;4865938;29;45292;-85
2021/12/09 00:40:58;;;;;;;;;3.25;1.50;;;;;4.03;100.00;100164.94;4885575;29;45359;-85
2021/12/09 00:43:23;;;;;;;;;4.75;1.00;;;;;4.03;100.00;100170.19;4885160;29;45413;-84
2021/12/09 00:45:49;;;;;;;;;0.00;0.00;;;;;3.97;100.00;100164.38;4886196;29;45315;-84
2021/12/09 00:48:14;;;;;;;;;0.50;0.50;;;;;3.96;100.00;100158.25;4868119;29;46517;-84
2021/12/09 00:50:40;;;;;;;;;1.00;1.00;;;;;3.96;100.00;100178.44;4883680;29;44723;-85
2021/12/09 00:53:06;;;;;;;;;1.75;1.75;;;;;3.93;100.00;100189.09;4881972;29;44819;-85
2021/12/09 00:55:31;;;;;;;;;2.00;1.75;;;;;3.83;100.00;100175.56;4881601;29;45335;-84
2021/12/09 00:57:56;;;;;;;;;1.00;1.00;;;;;3.83;100.00;100186.06;4881654;29;45007;-85
2021/12/09 01:00:22;;;;;;;;;1.00;1.00;;;;;3.79;100.00;100195.88;4882866;29;44815;-85
2021/12/09 01:02:48;;;;;;;;;2.00;2.00;;;;;3.72;100.00;100189.19;4882991;29;45490;-85
2021/12/09 01:05:15;;;;;;;;;2.75;1.00;;;;;3.73;100.00;100201.41;4884469;29;44867;-84
2021/12/09 01:07:41;;;;;;;;;0.75;0.75;;;;;3.67;100.00;100193.81;4882563;29;45191;-85
2021/12/09 01:10:10;;;;;;;;;4.75;2.00;;;;;3.66;100.00;100199.13;4882713;29;44799;-85
2021/12/09 01:12:37;;;;;;;;;2.00;2.00;;;;;3.65;100.00;100200.06;4865589;29;45270;-85
2021/12/09 01:15:05;;;;;;;;;1.00;1.00;;;;;3.60;100.00;100193.25;4882494;29;45501;-86
2021/12/09 01:17:31;;;;;;;;;3.25;1.50;;;;;3.55;100.00;100195.25;4884762;29;45173;-85
2021/12/09 01:19:56;;;;;;;;;3.25;2.00;;;;;3.52;100.00;100197.16;4884395;29;45599;-85
2021/12/09 01:22:29;;;;;;;;;3.00;1.50;;;;;3.49;100.00;100197.31;4885114;29;44857;-85
2021/12/09 01:24:54;;;;;;;;;4.75;1.75;;;;;3.47;100.00;100205.25;4884541;29;44814;-85
2021/12/09 01:27:20;;;;;;;;;1.00;1.00;;;;;3.43;100.00;100197.59;4884780;29;45317;-84
2021/12/09 01:29:52;;;;;;;;;3.75;1.25;;;;;3.44;100.00;100210.66;4866829;29;44851;-85
2021/12/09 01:32:24;;;;;;;;;2.00;1.00;;;;;3.41;100.00;100210.78;4885542;29;44744;-85
2021/12/09 01:34:50;;;;;;;;;2.00;2.00;;;;;3.35;100.00;100213.69;4888690;29;44809;-85
2021/12/09 01:37:15;;;;;;;;;1.00;1.00;;;;;3.40;100.00;100218.75;4888806;29;45190;-85
2021/12/09 01:39:40;;;;;;;;;4.50;1.25;;;;;3.37;100.00;100214.47;4892033;29;45326;-84
2021/12/09 01:42:06;;;;;;;;;2.25;2.00;;;;;3.36;100.00;100231.16;4890800;29;44868;-84
2021/12/09 01:44:32;;;;;;;;;1.00;1.00;;;;;3.33;100.00;100226.88;4892493;29;44888;-85
2021/12/09 01:46:57;;;;;;;;;2.00;2.00;;;;;3.29;100.00;100227.13;4868716;29;46914;-84
2021/12/09 01:49:23;;;;;;;;;4.25;3.00;;;;;3.31;100.00;100222.63;4883694;29;44813;-85
2021/12/09 01:51:48;;;;;;;;;3.50;1.75;;;;;3.35;100.00;100229.47;4864935;29;45272;-84
2021/12/09 01:54:15;;;;;;;;;2.25;2.00;;;;;3.35;100.00;100232.06;4881409;29;44972;-86
2021/12/09 01:56:41;;;;;;;;;1.00;1.00;;;;;3.33;100.00;100233.91;4869691;29;46024;-86
2021/12/09 01:59:07;;;;;;;;;1.75;1.75;;;;;3.37;100.00;100250.38;4881503;29;44838;-87
2021/12/09 02:01:35;;;;;;;;;3.00;1.00;;;;;3.32;100.00;100235.69;4865445;29;44738;-86
2021/12/09 02:04:03;;;;;;;;;2.00;2.00;;;;;3.32;100.00;100238.31;4865394;29;45321;-86
2021/12/09 02:06:28;;;;;;;;;2.50;2.00;;;;;3.37;100.00;100242.50;4882161;29;45107;-86
2021/12/09 02:08:54;;;;;;;;;1.25;1.25;;;;;3.37;100.00;100245.13;4882681;29;44831;-86
2021/12/09 02:11:21;;;;;;;;;1.50;1.50;;;;;3.35;100.00;100240.81;4882474;29;45329;-86
2021/12/09 02:13:50;;;;;;;;;1.00;1.00;;;;;3.39;100.00;100240.69;4864385;29;45004;-85
2021/12/09 02:16:16;;;;;;;;;3.00;1.50;;;;;3.40;100.00;100252.88;4863660;29;45402;-86
2021/12/09 02:18:42;;;;;;;;;3.00;2.00;;;;;3.40;100.00;100235.34;4864406;29;45351;-85
2021/12/09 02:21:07;;;;;;;;;1.00;1.00;;;;;3.41;100.00;100241.44;4863950;29;45403;-86
2021/12/09 02:23:33;;;;;;;;;3.25;1.00;;;;;3.40;100.00;100234.50;4864849;29;44802;-85
2021/12/09 02:25:59;;;;;;;;;2.00;0.50;;;;;3.41;100.00;100241.44;4881617;29;45162;-85
2021/12/09 02:28:26;;;;;;;;;1.00;1.00;;;;;3.35;100.00;100229.47;4880475;29;44801;-85
2021/12/09 02:30:52;;;;;;;;;1.00;1.00;;;;;3.38;100.00;100245.03;4883660;29;45437;-85
2021/12/09 02:33:17;;;;;;;;;1.25;1.25;;;;;3.37;100.00;100240.72;4886555;29;44885;-85
2021/12/09 02:35:43;;;;;;;;;1.00;1.00;;;;;3.38;100.00;100238.94;4887004;29;45050;-85
2021/12/09 02:38:09;;;;;;;;;4.00;1.00;;;;;3.38;100.00;100246.81;4886698;29;45244;-86
2021/12/09 02:40:35;;;;;;;;;0.75;0.75;;;;;3.39;100.00;100245.94;4887578;29;44663;-85
2021/12/09 02:43:01;;;;;;;;;1.00;1.00;;;;;3.40;100.00;100245.84;4886739;29;44838;-85
2021/12/09 02:45:27;;;;;;;;;2.00;2.00;;;;;3.41;100.00;100252.78;4885964;29;45587;-85
2021/12/09 02:47:52;;;;;;;;;2.00;2.00;;;;;3.43;100.00;100250.94;4885695;29;44694;-85
2021/12/09 02:50:18;;;;;;;;;2.00;1.75;;;;;3.45;100.00;100249.13;4885846;29;45370;-85
2021/12/09 02:52:47;;;;;;;;;0.25;0.25;;;;;3.47;100.00;100249.03;4887368;29;44830;-86
2021/12/09 02:55:13;;;;;;;;;1.00;1.00;;;;;3.42;100.00;100240.53;4885319;29;45264;-85
2021/12/09 02:57:38;;;;;;;;;2.25;1.00;;;;;3.48;100.00;100251.63;4887921;29;44722;-85
2021/12/09 03:00:06;;;;;;;;;0.75;0.00;;;;;3.46;100.00;100236.84;4889413;29;44671;-85
2021/12/09 03:02:32;;;;;;;;;1.00;1.00;;;;;3.44;100.00;100226.41;4887110;29;45292;-89
2021/12/09 03:05:02;;;;;;;;;3.00;1.00;;;;;3.48;100.00;100245.47;4887802;29;45056;-85
2021/12/09 03:07:35;;;;;;;;;1.00;1.00;;;;;3.49;100.00;100257.72;4890912;29;44805;-84
2021/12/09 03:10:19;;;;;;;;;2.00;2.00;;;;;3.49;100.00;100258.56;4889299;29;45477;-84
2021/12/09 03:12:47;;;;;;;;;2.00;1.33;;;;;3.48;100.00;100258.59;4897006;29;44866;-89
2021/12/09 03:15:13;;;;;;;;;2.00;1.00;;;;;3.48;100.00;100259.50;4895412;29;45396;-89
2021/12/09 03:17:40;;;;;;;;;2.00;2.00;;;;;3.51;100.00;100243.56;4890340;29;44793;-88
2021/12/09 03:20:09;;;;;;;;;1.00;1.00;;;;;3.51;100.00;100261.97;4888925;29;44800;-88
2021/12/09 03:22:35;;;;;;;;;2.75;2.00;;;;;3.51;100.00;100258.47;4872744;29;44889;-88
2021/12/09 03:25:06;;;;;;;;;2.25;1.00;;;;;3.50;100.00;100256.78;4889150;29;45653;-90
2021/12/09 03:27:32;;;;;;;;;3.00;1.00;;;;;3.52;100.00;100253.16;4888159;29;44699;-89
2021/12/09 03:30:00;;;;;;;;;2.50;1.00;;;;;3.51;100.00;100247.97;4886485;29;44749;-89
2021/12/09 03:32:26;;;;;;;;;1.00;1.00;;;;;3.52;100.00;100252.31;4884156;29;45024;-88
2021/12/09 03:34:52;;;;;;;;;2.00;0.00;;;;;3.57;100.00;100258.19;4884934;29;46657;-88
2021/12/09 03:37:22;;;;;;;;;0.25;0.00;;;;;3.56;100.00;100259.97;4872477;29;44692;-88
2021/12/09 03:39:49;;;;;;;;;3.75;2.75;;;;;3.58;100.00;100268.66;4873024;29;44834;-85
2021/12/09 03:42:17;;;;;;;;;1.00;1.00;;;;;3.59;100.00;100257.22;4885448;29;44856;-85
2021/12/09 03:44:45;;;;;;;;;1.00;1.00;;;;;3.65;100.00;100265.72;4885824;29;45214;-85
2021/12/09 03:47:14;;;;;;;;;2.00;1.00;;;;;3.65;100.00;100261.34;4887198;29;44824;-84
2021/12/09 03:49:42;;;;;;;;;1.75;1.75;;;;;3.70;100.00;100269.00;4891774;29;44725;-84
2021/12/09 03:52:08;;;;;;;;;3.00;1.75;;;;;3.70;100.00;100272.47;4893226;29;44860;-85
2021/12/09 03:54:33;;;;;;;;;1.75;1.00;;;;;3.73;100.00;100276.75;4888760;29;45097;-85
2021/12/09 03:56:58;;;;;;;;;2.25;1.00;;;;;3.70;100.00;100274.25;4886290;29;45433;-85
2021/12/09 03:59:24;;;;;;;;;1.00;1.00;;;;;3.76;100.00;100279.22;4886661;29;44915;-85
2021/12/09 04:01:50;;;;;;;;;4.75;1.00;;;;;3.75;100.00;100269.63;4869419;29;45010;-85
2021/12/09 04:04:16;;;;;;;;;1.00;1.00;;;;;3.76;100.00;100273.97;4887812;29;44955;-85
2021/12/09 04:06:42;;;;;;;;;3.75;2.00;;;;;3.79;100.00;100281.72;4856054;29;45464;-84
2021/12/09 04:09:11;;;;;;;;;2.00;2.00;;;;;3.80;100.00;100286.03;4888578;29;44807;-85
2021/12/09 04:11:37;;;;;;;;;1.00;1.00;;;;;3.80;100.00;100294.75;4885130;29;44842;-85
2021/12/09 04:14:03;;;;;;;;;1.75;1.50;;;;;3.81;100.00;100290.38;4867890;29;45329;-86
2021/12/09 04:16:29;;;;;;;;;1.00;1.00;;;;;3.78;100.00;100286.13;4884405;29;45167;-86
2021/12/09 04:18:56;;;;;;;;;1.50;1.00;;;;;3.77;100.00;100296.69;4884847;29;45418;-85
2021/12/09 04:21:21;;;;;;;;;0.00;0.00;;;;;3.75;100.00;100291.50;4886624;29;45245;-85
2021/12/09 04:23:47;;;;;;;;;3.50;1.00;;;;;3.73;100.00;100300.41;4885717;29;45342;-84
2021/12/09 04:26:12;;;;;;;;;3.50;2.00;;;;;3.75;100.00;100288.88;4885273;29;44792;-84
2021/12/09 04:28:39;;;;;;;;;0.75;0.75;;;;;3.72;100.00;100291.63;4884729;29;45239;-85
2021/12/09 04:31:06;;;;;;;;;1.00;1.00;;;;;3.77;100.00;100288.78;4885683;29;45397;-89
2021/12/09 04:33:32;;;;;;;;;5.50;1.75;;;;;3.79;100.00;100292.22;4861339;29;45690;-89
2021/12/09 04:35:58;;;;;;;;;2.50;2.50;;;;;3.81;100.00;100293.84;4895159;29;44851;-89
2021/12/09 04:38:24;;;;;;;;;1.00;1.00;;;;;3.79;100.00;100287.81;4877945;29;44799;-89
2021/12/09 04:40:49;;;;;;;;;3.50;1.00;;;;;3.83;100.00;100297.25;4894974;29;44801;-88
2021/12/09 04:43:15;;;;;;;;;3.75;2.75;;;;;3.83;100.00;100289.38;4895168;29;45158;-89
2021/12/09 04:45:42;;;;;;;;;3.00;1.75;;;;;3.85;100.00;100295.41;4875471;29;44751;-88
2021/12/09 04:48:09;;;;;;;;;1.50;1.50;;;;;3.82;100.00;100284.19;4890615;29;44778;-88
2021/12/09 04:50:37;;;;;;;;;1.00;1.00;;;;;3.87;100.00;100284.84;4875003;29;44861;-89
2021/12/09 04:53:04;;;;;;;;;1.25;1.00;;;;;3.92;100.00;100295.16;4887881;29;45539;-88
2021/12/09 04:55:30;;;;;;;;;1.00;1.00;;;;;3.92;100.00;100293.38;4868861;29;45342;-88
2021/12/09 04:57:56;;;;;;;;;3.50;2.25;;;;;3.95;100.00;100292.34;4868960;29;45243;-88
2021/12/09 05:00:23;;;;;;;;;4.25;1.75;;;;;3.91;100.00;100299.53;4885567;29;45233;-89
2021/12/09 05:03:12;;;;;;;;;2.50;2.00;;;;;3.91;100.00;100293.41;4885257;29;45164;-89
2021/12/09 05:05:43;;;;;;;;;2.25;2.00;;;;;3.90;100.00;100303.06;4885707;29;44742;-90
2021/12/09 05:08:13;;;;;;;;;3.00;1.00;;;;;3.86;100.00;100296.25;4872193;29;45335;-88
2021/12/09 05:11:07;;;;;;;;;5.75;2.00;;;;;3.93;100.00;100309.97;4886366;29;44892;-89
2021/12/09 05:13:30;;;;;;;;;3.25;3.00;;;;;3.88;100.00;100296.22;4885120;29;45223;-89
2021/12/09 05:15:57;;;;;;;;;0.00;0.00;;;;;3.91;100.00;100298.66;4883914;29;45343;-89
2021/12/09 05:18:24;;;;;;;;;5.50;3.00;;;;;3.88;100.00;100294.44;4868132;29;44872;-88
2021/12/09 05:20:50;;;;;;;;;2.50;2.00;;;;;3.93;100.00;100304.72;4886771;29;44762;-88
2021/12/09 05:23:17;;;;;;;;;7.25;2.75;;;;;3.94;100.00;100309.91;4867404;29;45533;-89
2021/12/09 05:25:44;;;;;;;;;2.75;2.00;;;;;3.91;100.00;100298.66;4888522;29;44766;-88
2021/12/09 05:28:11;;;;;;;;;3.50;3.00;;;;;3.88;100.00;100307.56;4868952;29;44823;-86
2021/12/09 05:32:07;;;;;;;;;4.75;3.00;;;;;3.91;100.00;100309.19;4884626;29;44816;-86
2021/12/09 05:33:27;;;;;;;;;3.75;3.00;;;;;3.88;100.00;100304.94;4884190;29;45059;-85
2021/12/09 05:35:53;;;;;;;;;5.50;3.50;;;;;3.89;100.00;100311.88;4869396;29;45473;-86
2021/12/09 05:38:18;;;;;;;;;4.00;4.00;;;;;3.83;100.00;100307.78;4885254;29;44699;-87
2021/12/09 05:40:44;;;;;;;;;4.00;3.00;;;;;3.87;100.00;100319.00;4884999;29;45272;-85
2021/12/09 05:43:09;;;;;;;;;7.00;4.00;;;;;3.86;100.00;100315.50;4883740;29;45291;-85
2021/12/09 05:45:35;;;;;;;;;3.00;3.00;;;;;3.83;100.00;100315.66;4883784;29;44806;-86
2021/12/09 05:48:01;;;;;;;;;5.00;4.00;;;;;3.81;100.00;100320.09;4881775;29;45341;-86
2021/12/09 05:50:26;;;;;;;;;6.00;3.75;;;;;3.78;100.00;100314.16;4868223;29;45502;-86
2021/12/09 05:52:51;;;;;;;;;8.50;6.75;;;;;3.79;100.00;100314.09;4864554;29;45227;-85
2021/12/09 05:55:17;;;;;;;;;6.25;5.00;;;;;3.82;100.00;100319.22;4866452;29;44758;-86
2021/12/09 05:57:42;;;;;;;;;5.50;3.00;;;;;3.83;100.00;100320.06;4864906;29;44911;-86
2021/12/09 06:00:09;;;;;;;;;6.00;5.25;;;;;3.82;100.00;100318.34;4865119;29;45493;-86
2021/12/09 06:02:35;;;;;;;;;4.75;4.75;;;;;3.83;100.00;100330.56;4864903;29;45364;-86
2021/12/09 06:05:02;;;;;;;;;4.25;4.00;;;;;3.78;100.00;100320.28;4864724;29;45368;-86
2021/12/09 06:07:28;;;;;;;;;9.25;3.75;;;;;3.76;100.00;100329.13;4867739;29;45449;-86
2021/12/09 06:09:55;;;;;;;;;6.75;6.75;;;;;3.72;100.00;100331.03;4869714;29;44797;-85
2021/12/09 06:12:21;;;;;;;;;6.25;6.25;;;;;3.72;100.00;100331.03;4877669;29;45228;-85
2021/12/09 06:14:46;;;;;;;;;4.00;3.00;;;;;3.72;100.00;100336.28;4878748;29;44793;-86
2021/12/09 06:17:11;;;;;;;;;4.75;4.75;;;;;3.77;100.00;100336.09;4875042;29;45047;-86
2021/12/09 06:19:37;;;;;;;;;7.00;5.25;;;;;3.76;100.00;100339.63;4887737;29;44818;-88
2021/12/09 06:22:03;;;;;;;;;12.00;5.50;;;;;3.77;100.00;100339.59;4880328;29;44951;-87
2021/12/09 06:24:28;;;;;;;;;6.75;5.50;;;;;3.77;100.00;100342.22;4868811;29;44808;-87
2021/12/09 06:26:55;;;;;;;;;6.75;6.75;;;;;3.79;100.00;100342.13;4898142;29;44611;-87
2021/12/09 06:29:21;;;;;;;;;7.50;5.75;;;;;3.77;100.00;100347.47;4896670;29;44904;-88
2021/12/09 06:31:48;;;;;;;;;6.75;6.75;;;;;3.74;100.00;100334.47;4893118;29;45228;-87
2021/12/09 06:34:13;;;;;;;;;8.00;6.75;;;;;3.68;100.00;100328.66;4855685;29;45199;-86
2021/12/09 06:36:40;;;;;;;;;7.00;7.00;;;;;3.67;100.00;100343.53;4878715;29;44815;-87
2021/12/09 06:39:06;;;;;;;;;7.50;5.25;;;;;3.65;100.00;100348.00;4889049;29;45450;-88
2021/12/09 06:41:32;;;;;;;;;6.50;6.50;;;;;3.65;100.00;100350.63;4872433;29;45161;-87
2021/12/09 06:43:57;;;;;;;;;8.00;7.00;;;;;3.62;100.00;100345.50;4890777;29;44875;-87
2021/12/09 06:46:23;;;;;;;;;3.25;1.25;;;;;3.62;100.00;100342.88;4889706;29;45437;-87
2021/12/09 06:48:50;;;;;;;;;7.75;7.00;;;;;3.60;100.00;100350.84;4890491;29;44931;-89
2021/12/09 06:51:20;;;;;;;;;5.25;5.25;;;;;3.48;100.00;100364.53;4896651;29;45432;-87
2021/12/09 06:53:48;;;;;;;;;7.00;4.00;;;;;3.50;100.00;100359.19;4899713;29;44817;-89
2021/12/09 06:56:14;;;;;;;;;10.00;5.75;;;;;3.51;100.00;100360.91;4899347;29;44711;-86
2021/12/09 06:58:39;;;;;;;;;9.00;7.50;;;;;3.47;100.00;100360.16;4881987;29;45008;-89
2021/12/09 07:01:08;;;;;;;;;6.75;4.25;;;;;3.54;100.00;100369.50;4878827;29;44988;-87
2021/12/09 07:03:35;;;;;;;;;6.00;4.00;;;;;3.50;100.00;100364.44;4899421;29;44745;-87
2021/12/09 07:06:12;;;;;;;;;7.00;7.00;;;;;3.52;100.00;100375.72;4887009;29;44787;-88
2021/12/09 07:08:47;;;;;;;;;9.67;7.00;;;;;3.50;100.00;100381.06;4887005;29;44916;-87
2021/12/09 07:11:28;;;;;;;;;8.00;7.33;;;;;3.32;100.00;100359.06;4896030;29;45596;-87
2021/12/09 07:14:02;;;;;;;;;12.67;9.00;;;;;3.34;100.00;100367.75;4901748;29;44692;-88
2021/12/09 07:16:28;;;;;;;;;8.67;7.33;;;;;3.36;100.00;100375.53;4904604;29;44737;-88
2021/12/09 07:18:53;;;;;;;;;4.00;3.33;;;;;3.29;100.00;100366.25;4889805;29;45010;-88
2021/12/09 07:21:48;;;;;;;;;10.50;8.50;;;;;3.30;100.00;100370.56;4902510;29;45155;-90
2021/12/09 07:24:17;;;;;;;;;6.75;6.75;;;;;3.28;100.00;100381.09;4883068;29;44722;-89
2021/12/09 07:26:42;;;;;;;;;12.75;9.25;;;;;3.26;100.00;100372.47;4869158;29;44906;-89
2021/12/09 07:29:28;;;;;;;;;9.25;8.00;;;;;3.26;100.00;100372.47;4868433;29;44825;-88
2021/12/09 07:31:56;;;;;;;;;9.50;7.50;;;;;3.20;100.00;100369.25;4868291;29;45245;-88
2021/12/09 07:34:22;;;;;;;;;7.50;7.50;;;;;3.13;100.00;100358.13;4866881;29;44647;-88
2021/12/09 07:36:48;;;;;;;;;8.33;8.33;;;;;3.16;100.00;100373.78;4871454;29;44841;-87
2021/12/09 07:39:14;;;;;;;;;9.00;8.67;;;;;3.17;100.00;100377.25;4852476;29;45334;-87
2021/12/09 07:41:40;;;;;;;;;1.33;0.00;;;;;3.14;100.00;100377.38;4869759;29;45709;-87
2021/12/09 07:44:05;;;;;;;;;12.00;8.33;;;;;3.07;100.00;100367.13;4867234;29;44798;-85
2021/12/09 07:46:32;;;;;;;;;8.67;7.67;;;;;3.12;100.00;100380.06;4871303;29;45299;-86
2021/12/09 07:48:58;;;;;;;;;11.00;9.00;;;;;3.07;100.00;100363.66;4873028;29;44887;-88
2021/12/09 07:51:24;;;;;;;;;9.67;8.33;;;;;3.03;100.00;100360.31;4874759;29;45229;-88
2021/12/09 07:53:50;;;;;;;;;14.67;9.67;;;;;3.14;100.00;100378.22;4856603;29;44638;-88
2021/12/09 07:56:15;;;;;;;;;8.67;7.00;;;;;3.07;100.00;100371.53;4857008;29;44858;-88
2021/12/09 07:58:48;;;;;;;;;8.33;8.33;;;;;3.10;100.00;100376.66;4875935;29;44893;-89
2021/12/09 08:01:14;;;;;;;;;9.00;9.00;;;;;2.98;100.00;100367.50;4859309;29;47171;-88
2021/12/09 08:07:16;;;;;;;;;7.33;6.33;;;;;3.13;100.00;100378.28;4885573;29;44690;-87
2021/12/09 08:09:45;;;;;;;;;7.33;7.33;;;;;3.12;100.00;100374.81;4878815;29;44913;-87
2021/12/09 08:12:12;;;;;;;;;11.33;8.00;;;;;3.19;100.00;100381.53;4846693;29;46891;-89
2021/12/09 08:21:29;;;;;;;;;9.00;9.00;;;;;3.17;100.00;100377.25;4833714;29;44752;-88
2021/12/09 08:23:54;;;;;;;;;9.67;8.00;;;;;3.24;100.00;100381.31;4833072;29;45167;-88
2021/12/09 08:26:21;;;;;;;;;12.00;9.33;;;;;3.30;100.00;100395.03;4821428;29;44644;-87
2021/12/09 08:28:47;;;;;;;;;7.00;6.00;;;;;3.35;100.00;100382.56;4834230;29;44630;-88
2021/12/09 08:31:13;;;;;;;;;12.00;9.00;;;;;3.37;100.00;100364.13;4834210;29;45197;-88
2021/12/09 08:33:38;;;;;;;;;12.00;8.00;;;;;3.43;100.00;100365.63;4832708;29;45103;-88
2021/12/09 08:36:04;;;;;;;;;14.00;12.33;;;;;3.46;100.00;100368.13;4832891;29;44767;-87
2021/12/09 08:38:30;;;;;;;;;8.33;6.67;;;;;3.52;100.00;100381.81;4836475;29;44759;-87
2021/12/09 08:40:56;;;;;;;;;16.67;14.67;;;;;3.58;100.00;100372.84;4820186;29;45031;-89
2021/12/09 08:43:23;;;;;;;;;22.67;15.00;;;;;3.60;100.00;100379.72;4818465;29;45173;-88
2021/12/09 08:45:50;;;;;;;;;13.00;8.67;;;;;3.54;100.00;100358.16;4832056;29;44773;-88
2021/12/09 08:48:16;;;;;;;;;11.33;4.33;;;;;3.63;100.00;100375.25;4843840;29;44824;-90
2021/12/09 08:50:44;;;;;;;;;19.67;14.00;;;;;3.69;100.00;100367.13;4869895;29;44836;-89
2021/12/09 08:53:12;;;;;;;;;21.00;17.33;;;;;3.80;100.00;100378.00;4868293;29;45349;-90
2021/12/09 08:55:39;;;;;;;;;9.67;9.67;;;;;3.89;100.00;100384.63;4870294;29;44654;-90
2021/12/09 08:58:05;;;;;;;;;12.67;11.33;;;;;3.83;100.00;100372.59;4870472;29;44704;-89
2021/12/09 09:00:32;;;;;;;;;15.25;8.25;;;;;3.88;100.00;100388.16;4855953;29;44947;-90
2021/12/09 09:02:58;;;;;;;;;10.75;9.00;;;;;3.91;100.00;100393.25;4876046;29;45367;-88
2021/12/09 09:05:25;;;;;;;;;11.50;9.25;;;;;3.95;100.00;100392.22;4871500;29;44774;-88
2021/12/09 09:07:51;;;;;;;;;14.00;8.50;;;;;3.93;100.00;100404.59;4870980;29;44766;-88
2021/12/09 09:10:20;;;;;;;;;10.00;10.00;;;;;4.02;100.00;100398.91;4870874;29;44771;-87
2021/12/09 09:12:46;;;;;;;;;10.50;9.00;;;;;4.03;100.00;100390.09;4868490;29;45182;-88
2021/12/09 09:15:16;;;;;;;;;15.25;10.00;;;;;4.12;100.00;100408.94;4854109;29;44756;-89
2021/12/09 09:17:42;;;;;;;;;12.25;8.00;;;;;4.21;100.00;100414.69;4869322;29;44717;-90
2021/12/09 09:20:10;;;;;;;;;13.75;8.75;;;;;4.16;100.00;100407.03;4869631;29;44805;-90
2021/12/09 09:22:37;;;;;;;;;14.25;11.50;;;;;4.20;100.00;100410.34;4869330;29;45087;-89
2021/12/09 09:25:05;;;;;;;;;13.33;10.00;;;;;4.35;100.00;100426.28;4871029;29;44806;-89
2021/12/09 09:27:31;;;;;;;;;17.67;9.67;;;;;4.38;100.00;100425.28;4870429;29;44723;-91
2021/12/09 09:29:57;;;;;;;;;7.67;7.67;;;;;4.57;100.00;100430.53;4870475;29;44921;-90
2021/12/09 09:32:23;;;;;;;;;12.50;9.00;;;;;4.53;100.00;100415.81;4852956;29;45135;-90
2021/12/09 09:38:11;;;;;;;;;20.67;10.00;;;;;4.71;100.00;100422.00;4874665;29;44789;-89
2021/12/09 09:40:49;;;;;;;;;10.00;7.00;;;;;4.73;100.00;100413.06;4845575;29;44983;-89
2021/12/09 09:43:42;;;;;;;;;15.50;13.00;;;;;4.86;100.00;100429.16;4882009;29;45391;-91
2021/12/09 09:46:11;;;;;;;;;19.00;17.50;;;;;5.03;100.00;100430.94;4867982;29;45152;-90
2021/12/09 09:48:40;;;;;;;;;11.25;8.75;;;;;5.08;100.00;100436.88;4882974;29;44825;-91
2021/12/09 09:51:07;;;;;;;;;11.00;9.00;;;;;5.16;100.00;100438.16;4882309;29;44980;-91
2021/12/09 09:53:34;;;;;;;;;13.75;10.50;;;;;5.31;100.00;100451.50;4879144;29;45333;-90
2021/12/09 09:56:00;;;;;;;;;7.75;5.75;;;;;5.36;100.00;100452.13;4864775;29;44645;-91
2021/12/09 09:58:26;;;;;;;;;8.25;8.25;;;;;5.39;100.00;100444.94;4883263;29;44692;-90
2021/12/09 10:00:52;;;;;;;;;12.50;6.50;;;;;5.53;100.00;100446.03;4876891;29;44805;-91
2021/12/09 10:03:17;;;;;;;;;9.25;8.00;;;;;5.66;100.00;100452.38;4875616;29;45045;-91
2021/12/09 10:05:57;;;;;;;;;7.75;5.25;;;;;5.76;100.00;100456.25;4881210;29;44751;-91
2021/12/09 10:08:23;;;;;;;;;10.00;8.50;;;;;5.80;100.00;100444.63;4853324;29;44770;-90
2021/12/09 10:10:49;;;;;;;;;9.00;6.25;;;;;5.88;100.00;100444.19;4865229;29;44853;-89
2021/12/09 10:13:18;;;;;;;;;9.50;9.50;;;;;6.02;100.00;100443.50;4863079;29;44963;-90
2021/12/09 10:15:51;;;;;;;;;6.25;4.50;;;;;6.06;100.00;100426.59;4844853;29;44772;-90
2021/12/09 10:18:44;;;;;;;;;8.50;7.25;;;;;6.19;100.00;100430.28;4859287;29;44659;-90
2021/12/09 10:21:12;;;;;;;;;8.75;7.00;;;;;6.26;100.00;100428.16;4873406;29;44978;-91
2021/12/09 10:23:44;;;;;;;;;9.75;8.00;;;;;6.41;100.00;100433.47;4877757;29;45316;-90
2021/12/09 10:26:19;;;;;;;;;9.75;9.50;;;;;6.52;100.00;100432.00;4874032;29;44621;-90
2021/12/09 10:29:17;;;;;;;;;9.00;7.50;;;;;6.51;100.00;100417.97;4870952;29;44799;-90
2021/12/09 10:32:04;;;;;;;;;10.25;8.50;;;;;6.62;100.00;100420.00;4873588;29;44851;-89
2021/12/09 10:34:35;;;;;;;;;8.25;6.00;;;;;6.73;100.00;100425.56;4852663;29;46651;-89
2021/12/09 10:37:18;;;;;;;;;15.00;5.80;;;;;6.59;100.00;100391.16;4869762;29;44674;-88
2021/12/09 10:39:53;;;;;;;;;12.00;6.00;;;;;6.71;100.00;100393.09;4875060;29;44789;-89
2021/12/09 10:42:43;;;;;;;;;12.00;8.75;;;;;6.79;100.00;100403.25;4856678;29;45048;-88
2021/12/09 10:48:44;;;;;;;;;10.00;9.00;;;;;6.84;100.00;100402.03;4864166;29;44855;-89
2021/12/09 10:51:25;;;;;;;;;17.25;12.75;;;;;6.77;100.00;100387.50;4848265;29;45586;-86
2021/12/09 10:53:58;;;;;;;;;5.00;5.00;;;;;6.89;100.00;100385.94;4858175;29;45310;-87
2021/12/09 10:56:27;;;;;;;;;10.50;6.25;;;;;6.93;100.00;100384.81;4867129;29;46096;-88
2021/12/09 10:58:53;;;;;;;;;11.75;6.50;;;;;7.03;100.00;100386.00;4857491;29;45576;-87
2021/12/09 11:01:20;;;;;;;;;8.25;8.25;;;;;7.14;100.00;100396.78;4867139;29;44884;-88
2021/12/09 11:03:56;;;;;;;;;9.75;8.25;;;;;7.19;100.00;100386.78;4852893;29;45458;-87
2021/12/09 11:06:35;;;;;;;;;11.75;10.00;;;;;7.18;100.00;100376.31;4847895;29;45199;-86
2021/12/09 11:09:08;;;;;;;;;11.25;11.00;;;;;7.21;100.00;100381.44;4846334;29;44802;-90
2021/12/09 11:11:42;;;;;;;;;14.50;12.75;;;;;7.17;100.00;100387.84;4849052;29;44643;-90
2021/12/09 11:14:14;;;;;;;;;15.00;13.25;;;;;7.17;100.00;100379.91;4850625;29;44901;-90
2021/12/09 11:16:44;;;;;;;;;17.75;15.00;;;;;7.11;100.00;100365.28;4853331;29;45392;-91
2021/12/09 11:19:31;;;;;;;;;14.75;12.25;;;;;7.14;100.00;100374.78;4873339;29;44643;-88
2021/12/09 11:22:09;;;;;;;;;7.50;7.50;;;;;7.10;100.00;100358.25;4871390;29;45391;-86
2021/12/09 11:24:43;;;;;;;;;9.50;7.50;;;;;7.28;100.00;100372.19;4889682;29;44774;-88
2021/12/09 11:27:36;;;;;;;;;14.75;12.50;;;;;7.27;100.00;100357.28;4893270;29;46674;-87
2021/12/09 11:30:14;;;;;;;;;10.75;9.25;;;;;7.36;100.00;100364.66;4896827;29;44600;-87
2021/12/09 11:35:24;;;;;;;;;49.67;40.33;;;;;7.35;100.00;100359.47;4879053;29;44696;-90
2021/12/09 11:43:15;;;;;;;;;45.67;37.67;;;;;7.28;100.00;100344.94;4869406;29;44691;-86
2021/12/09 11:45:44;;;;;;;;;20.75;16.25;;;;;7.39;100.00;100356.53;4876385;29;44857;-90
2021/12/09 11:48:12;;;;;;;;;15.25;13.50;;;;;7.44;100.00;100354.47;4879917;29;45437;-90
2021/12/09 11:50:51;;;;;;;;;14.75;11.00;;;;;7.42;100.00;100343.16;4882215;29;44620;-89
2021/12/09 11:53:20;;;;;;;;;16.50;12.75;;;;;7.45;100.00;100360.63;4862986;29;44706;-90